Airfield :
LOGIN :

Register | Disclaimer

   EN    FR    IT 

 










Legend :    VFR   Marginal VFR   IFR   Intensive IFR   Very Intensive IFR
Visi :
Ceiling :
>= 8 km
>= 3000ft
5 to 8 km
1000 to 3000 ft
1500m to 5 km
500 to 1000 ft
800 to 1500m
200 to 500 ft
< 800m
< 200 ft
Symbols :   Thunderstorms  Fog  Heavy snow  Heavy precipitations  Wind > 20 kt
SIGMETs :     Misc.  Thunderstorms  Icing  Turbulence  Mountain Waves  Volcanic Ashes






- Airport Elevation : 464 ft
- IATA code : EVX


LFOE - Evreux

CURRENT METAR :
  • 200030Z AUTO 21014KT 9999 OVC048 08/06 Q1021

EXPIRED METARs :
  • 200000Z AUTO 22012KT 9999 OVC049 08/06 Q1021
  • 192330Z AUTO 22011KT CAVOK 08/06 Q1021
  • 192300Z AUTO 22010KT CAVOK 08/06 Q1021
  • 192230Z AUTO 21010KT CAVOK 08/06 Q1022
  • 192200Z AUTO 21012KT CAVOK 08/07 Q1022

TAF TAF LFOE
Valid from the 19 at 21:00 until the 20 at 21:00 UTC


192000Z 1921/2021 20010KT 9999 BKN030
TEMPO 1921/2006 BKN010
BECMG 2007/2009 22015G25KT
TEMPO 2012/2015 24020G35KT 4000 -RA
TEMPO 2017/2021 30025G40KT 3000 RA



MET'MAP, your aeronautical weather chart ! - Copyright ORBIFLY December 2007 - Disclaimer

ORBIFLY MET'MAP TEAM :

Programming & Development : Alexandra Zaïnal
Concept & original design : Baudouin d'Aumeries
Assistance for programming : Marc-Olivier Méhu
Technical & hardware support : Manuel Goepfert

Contact : metmap@orbifly.com




SOURCES & CREDITS :

   NOAA